createdAt,value
2019-04-25T00:00:54.543Z,99.90
2019-04-25T00:03:24.191Z,99.90
2019-04-25T00:05:52.307Z,99.90
2019-04-25T00:08:21.429Z,99.90
2019-04-25T00:10:48.467Z,99.90
2019-04-25T00:13:15.787Z,99.90
2019-04-25T00:15:44.904Z,99.90
2019-04-25T00:18:11.946Z,99.90
2019-04-25T00:20:43.603Z,99.90
2019-04-25T00:23:14.510Z,99.90
2019-04-25T00:25:54.758Z,99.90
2019-04-25T00:28:21.683Z,99.90
2019-04-25T00:30:48.428Z,99.90
2019-04-25T00:33:15.510Z,99.90
2019-04-25T00:35:44.552Z,99.90
2019-04-25T00:38:12.210Z,99.90
2019-04-25T00:40:39.183Z,99.90
2019-04-25T00:43:05.886Z,99.90
2019-04-25T00:45:32.795Z,99.90
2019-04-25T00:47:59.505Z,99.90
2019-04-25T00:50:26.196Z,99.90
2019-04-25T00:52:53.701Z,99.90
2019-04-25T00:55:28.671Z,99.90
2019-04-25T00:57:53.685Z,99.90
2019-04-25T01:00:29.215Z,99.90
2019-04-25T01:05:29.428Z,99.90
2019-04-25T01:07:56.150Z,99.90
2019-04-25T01:10:23.166Z,99.90
2019-04-25T01:12:52.064Z,99.90
2019-04-25T01:15:21.386Z,99.90
2019-04-25T01:17:48.877Z,99.90
2019-04-25T01:20:15.707Z,99.90
2019-04-25T01:22:44.085Z,99.90
2019-04-25T01:25:11.355Z,99.90
2019-04-25T01:27:38.542Z,99.90
2019-04-25T01:30:07.055Z,99.90
2019-04-25T01:32:36.525Z,99.90
2019-04-25T01:35:23.799Z,99.90
2019-04-25T01:38:03.589Z,99.90
2019-04-25T01:40:49.519Z,99.90
2019-04-25T01:43:29.333Z,99.90
2019-04-25T01:45:57.932Z,99.90
2019-04-25T01:48:25.007Z,99.90
2019-04-25T01:50:53.925Z,99.90
2019-04-25T01:53:20.715Z,99.90
2019-04-25T01:55:56.001Z,99.90
2019-04-25T01:58:16.535Z,99.90
2019-04-25T02:00:46.231Z,99.90
2019-04-25T02:03:13.609Z,99.90
2019-04-25T02:05:40.382Z,99.90
2019-04-25T02:08:07.494Z,99.90
2019-04-25T02:10:35.466Z,99.90
2019-04-25T02:13:04.260Z,99.90
2019-04-25T02:15:33.420Z,99.90
2019-04-25T02:18:00.413Z,99.90
2019-04-25T02:20:27.760Z,99.90
2019-04-25T02:22:55.639Z,99.90
2019-04-25T02:25:24.597Z,99.90
2019-04-25T02:27:52.753Z,99.90
2019-04-25T02:30:21.065Z,99.90
2019-04-25T02:32:47.996Z,99.90
2019-04-25T02:35:15.475Z,99.90
2019-04-25T02:37:44.828Z,99.90
2019-04-25T02:40:14.193Z,99.90
2019-04-25T02:42:41.374Z,99.90
2019-04-25T02:45:24.489Z,99.90
2019-04-25T02:48:14.306Z,99.90
2019-04-25T02:50:48.352Z,99.90
2019-04-25T02:53:47.154Z,99.90
2019-04-25T02:56:29.896Z,99.90
2019-04-25T02:58:44.305Z,99.90
2019-04-25T03:01:22.005Z,99.90
2019-04-25T03:03:44.991Z,99.90
2019-04-25T03:06:12.164Z,99.90
2019-04-25T03:08:39.422Z,99.90
2019-04-25T03:11:07.959Z,99.90
2019-04-25T03:13:35.630Z,99.90
2019-04-25T03:16:06.105Z,99.90
2019-04-25T03:18:34.850Z,99.90
2019-04-25T03:21:14.160Z,99.90
2019-04-25T03:23:42.994Z,99.90
2019-04-25T03:26:10.835Z,99.90
2019-04-25T03:28:38.182Z,99.90
2019-04-25T03:31:11.373Z,99.90
2019-04-25T03:33:37.791Z,99.90
2019-04-25T03:36:05.145Z,99.90
2019-04-25T03:38:32.039Z,99.90
2019-04-25T03:40:59.263Z,99.90
2019-04-25T03:43:25.962Z,99.90
2019-04-25T03:45:53.546Z,99.90
2019-04-25T03:48:20.883Z,99.90
2019-04-25T03:50:47.963Z,99.90
2019-04-25T03:53:15.214Z,99.90
2019-04-25T03:55:41.924Z,99.90
2019-04-25T03:58:10.670Z,99.90
2019-04-25T04:00:37.332Z,99.90
2019-04-25T04:03:06.619Z,99.90
2019-04-25T04:05:32.639Z,99.90
2019-04-25T04:08:01.021Z,99.90
2019-04-25T04:10:27.700Z,99.90
2019-04-25T04:12:54.419Z,99.90
2019-04-25T04:15:21.402Z,99.90
2019-04-25T04:17:57.143Z,99.90
2019-04-25T04:20:49.625Z,99.90
2019-04-25T04:23:43.018Z,99.90
2019-04-25T04:26:11.530Z,99.90
2019-04-25T04:28:39.256Z,99.90
2019-04-25T04:31:06.637Z,99.90
2019-04-25T04:33:34.584Z,99.90
2019-04-25T04:36:01.435Z,99.90
2019-04-25T04:38:29.054Z,99.90
2019-04-25T04:40:55.731Z,99.90
2019-04-25T04:43:23.910Z,99.90
2019-04-25T04:45:51.124Z,99.90
2019-04-25T04:48:18.815Z,99.90
2019-04-25T04:50:45.868Z,99.90
2019-04-25T04:53:14.392Z,99.90
2019-04-25T04:55:42.859Z,99.90
2019-04-25T04:58:11.139Z,99.90
2019-04-25T05:00:38.031Z,99.90
2019-04-25T05:03:14.876Z,99.90
2019-04-25T05:06:08.023Z,99.90
2019-04-25T05:08:38.413Z,99.90
2019-04-25T05:11:05.077Z,99.90
2019-04-25T05:13:31.775Z,99.90
2019-04-25T05:15:58.507Z,99.90
2019-04-25T05:18:34.562Z,92.90
2019-04-25T05:20:54.355Z,79.60
2019-04-25T05:23:21.103Z,66.40
2019-04-25T05:25:47.783Z,58.50
2019-04-25T05:28:16.172Z,53.40
2019-04-25T05:31:05.988Z,51.30
2019-04-25T05:33:33.810Z,48.70
2019-04-25T05:36:00.735Z,46.90
2019-04-25T05:38:27.463Z,44.80
2019-04-25T05:41:01.856Z,45.90
2019-04-25T05:43:28.868Z,46.10
2019-04-25T05:45:55.695Z,54.10
2019-04-25T05:48:23.609Z,61.10
2019-04-25T05:50:51.330Z,68.40
2019-04-25T05:53:18.110Z,73.90
2019-04-25T05:55:45.362Z,74.80
2019-04-25T05:58:13.534Z,75.70
2019-04-25T06:00:40.719Z,67.90
2019-04-25T06:03:07.437Z,57.00
2019-04-25T06:05:34.420Z,51.30
2019-04-25T06:08:01.374Z,46.00
2019-04-25T06:10:37.453Z,42.20
2019-04-25T06:13:29.803Z,38.90
2019-04-25T06:16:04.428Z,36.00
2019-04-25T06:18:43.977Z,33.40
2019-04-25T06:21:13.214Z,32.00
2019-04-25T06:23:50.873Z,30.90
2019-04-25T06:26:26.629Z,30.30
2019-04-25T06:28:53.859Z,30.00
2019-04-25T06:31:16.140Z,28.80
2019-04-25T06:33:43.379Z,28.80
2019-04-25T06:36:10.593Z,27.50
2019-04-25T06:38:38.835Z,28.00
2019-04-25T06:41:05.915Z,27.90
2019-04-25T06:43:34.218Z,27.00
2019-04-25T06:46:39.317Z,25.90
2019-04-25T06:49:13.715Z,25.70
2019-04-25T06:51:51.002Z,24.80
2019-04-25T06:54:18.759Z,24.00
2019-04-25T06:56:45.543Z,22.60
2019-04-25T06:59:13.600Z,23.30
2019-04-25T07:01:40.455Z,23.00
2019-04-25T07:04:07.647Z,22.60
2019-04-25T07:06:34.752Z,21.80
2019-04-25T07:09:03.086Z,22.10
2019-04-25T07:11:30.488Z,21.10
2019-04-25T07:13:57.419Z,23.00
2019-04-25T07:16:25.818Z,22.20
2019-04-25T07:18:53.490Z,22.00
2019-04-25T07:21:20.283Z,21.90
2019-04-25T07:23:47.188Z,22.20
2019-04-25T07:26:39.619Z,22.10
2019-04-25T07:29:17.150Z,21.10
2019-04-25T07:31:51.251Z,20.70
2019-04-25T07:34:20.398Z,22.90
2019-04-25T07:36:47.140Z,24.80
2019-04-25T07:39:14.460Z,26.70
2019-04-25T07:41:41.427Z,27.30
2019-04-25T07:44:08.115Z,27.90
2019-04-25T07:46:39.257Z,29.50
2019-04-25T07:49:04.117Z,30.00
2019-04-25T07:51:31.066Z,25.90
2019-04-25T07:53:57.851Z,26.00
2019-04-25T07:56:24.891Z,25.70
2019-04-25T07:58:53.208Z,25.70
2019-04-25T08:01:20.884Z,26.80
2019-04-25T08:03:47.711Z,26.80
2019-04-25T08:06:14.603Z,25.50
2019-04-25T08:08:41.515Z,26.10
2019-04-25T08:11:09.186Z,25.30
2019-04-25T08:13:55.694Z,26.20
2019-04-25T08:16:23.871Z,27.90
2019-04-25T08:18:51.222Z,26.30
2019-04-25T08:21:18.111Z,25.30
2019-04-25T08:23:46.032Z,26.20
2019-04-25T08:26:14.168Z,24.60
2019-04-25T08:28:51.976Z,24.60
2019-04-25T08:31:09.931Z,24.70
2019-04-25T08:33:37.064Z,24.00
2019-04-25T08:36:08.917Z,24.30
2019-04-25T08:38:34.666Z,23.30
2019-04-25T08:41:01.411Z,24.00
2019-04-25T08:43:28.090Z,26.20
2019-04-25T08:45:54.895Z,27.40
2019-04-25T08:48:24.608Z,29.20
2019-04-25T08:51:11.614Z,30.60
2019-04-25T08:53:57.171Z,31.20
2019-04-25T08:56:27.610Z,32.60
2019-04-25T08:59:17.336Z,32.40
2019-04-25T09:02:13.647Z,32.00
2019-04-25T09:05:00.674Z,33.00
2019-04-25T09:07:28.172Z,35.70
2019-04-25T09:09:55.071Z,36.80
2019-04-25T09:12:21.878Z,37.40
2019-04-25T09:14:48.586Z,36.70
2019-04-25T09:17:15.287Z,35.50
2019-04-25T09:19:44.133Z,35.80
2019-04-25T09:22:11.227Z,35.00
2019-04-25T09:24:38.992Z,33.50
2019-04-25T09:27:06.886Z,33.30
2019-04-25T09:29:35.272Z,35.20
2019-04-25T09:32:03.752Z,34.20
2019-04-25T09:34:30.599Z,35.60
2019-04-25T09:36:57.290Z,35.30
2019-04-25T09:39:46.788Z,37.00
2019-04-25T09:42:14.197Z,36.80
2019-04-25T09:44:59.626Z,36.20
2019-04-25T09:47:26.688Z,35.10
2019-04-25T09:49:54.370Z,35.20
2019-04-25T09:52:24.290Z,35.50
2019-04-25T09:54:57.310Z,33.90
2019-04-25T09:57:43.449Z,34.00
2019-04-25T10:00:18.112Z,33.40
2019-04-25T10:02:44.815Z,35.70
2019-04-25T10:05:11.698Z,35.20
2019-04-25T10:07:38.522Z,36.90
2019-04-25T10:10:06.203Z,36.80
2019-04-25T10:12:34.152Z,37.10
2019-04-25T10:15:29.350Z,36.40
2019-04-25T10:17:56.577Z,36.70
2019-04-25T10:20:23.375Z,37.90
2019-04-25T10:22:50.058Z,38.40
2019-04-25T10:25:17.379Z,37.00
2019-04-25T10:27:48.200Z,35.90
2019-04-25T10:30:19.647Z,36.10
2019-04-25T10:32:44.323Z,37.50
2019-04-25T10:35:14.625Z,37.40
2019-04-25T10:37:41.058Z,38.80
2019-04-25T10:40:10.148Z,39.10
2019-04-25T10:42:38.913Z,38.90
2019-04-25T10:45:06.238Z,39.00
2019-04-25T10:47:33.489Z,39.30
2019-04-25T10:50:03.847Z,38.90
2019-04-25T10:52:31.232Z,39.40
2019-04-25T10:54:58.380Z,38.40
2019-04-25T10:57:26.334Z,38.80
2019-04-25T11:00:03.420Z,38.30
2019-04-25T11:02:23.659Z,38.40
2019-04-25T11:04:57.120Z,39.00
2019-04-25T11:07:24.231Z,39.40
2019-04-25T11:09:51.418Z,39.50
2019-04-25T11:12:18.966Z,38.40
2019-04-25T11:14:46.440Z,38.90
2019-04-25T11:17:15.422Z,38.50
2019-04-25T11:19:44.060Z,37.80
2019-04-25T11:22:11.187Z,37.50
2019-04-25T11:24:38.114Z,38.00
2019-04-25T11:27:04.933Z,37.50
2019-04-25T11:29:33.974Z,38.60
2019-04-25T11:32:01.307Z,38.80
2019-04-25T11:34:28.360Z,39.80
2019-04-25T11:36:55.268Z,39.90
2019-04-25T11:39:38.020Z,38.80
2019-04-25T11:42:15.419Z,39.30
2019-04-25T11:44:45.254Z,39.80
2019-04-25T11:47:11.631Z,39.00
2019-04-25T11:49:38.311Z,39.40
2019-04-25T11:52:06.019Z,39.60
2019-04-25T11:54:32.803Z,38.50
2019-04-25T11:56:59.846Z,39.20
2019-04-25T11:59:26.566Z,39.10
2019-04-25T12:01:54.771Z,39.40
2019-04-25T12:04:23.910Z,38.80
2019-04-25T12:06:51.251Z,39.30
2019-04-25T12:09:19.215Z,38.30
2019-04-25T12:11:47.180Z,39.10
2019-04-25T12:14:15.126Z,38.80
2019-04-25T12:16:46.107Z,39.70
2019-04-25T12:19:10.868Z,38.80
2019-04-25T12:21:37.569Z,38.40
2019-04-25T12:24:05.868Z,38.70
2019-04-25T12:26:33.705Z,38.70
2019-04-25T12:29:00.595Z,39.00
2019-04-25T12:31:27.846Z,38.30
2019-04-25T12:33:55.195Z,38.70
2019-04-25T12:36:24.007Z,38.60
2019-04-25T12:38:51.196Z,38.50
2019-04-25T12:41:18.387Z,37.90
2019-04-25T12:43:55.208Z,37.30
2019-04-25T12:46:28.775Z,37.10
2019-04-25T12:48:55.869Z,36.60
2019-04-25T12:51:22.646Z,36.50
2019-04-25T12:53:49.917Z,36.50
2019-04-25T12:56:17.305Z,36.60
2019-04-25T12:58:44.111Z,36.20
2019-04-25T13:01:11.203Z,37.00
2019-04-25T13:03:37.898Z,36.90
2019-04-25T13:06:04.787Z,36.80
2019-04-25T13:08:31.498Z,36.40
2019-04-25T13:11:08.001Z,36.60
2019-04-25T13:13:27.101Z,36.20
2019-04-25T13:15:54.266Z,35.70
2019-04-25T13:18:21.219Z,35.30
2019-04-25T13:20:48.275Z,34.60
2019-04-25T13:23:15.835Z,34.30
2019-04-25T13:25:44.151Z,34.50
2019-04-25T13:28:18.482Z,34.60
2019-04-25T13:31:10.399Z,34.50
2019-04-25T13:33:41.066Z,34.30
2019-04-25T13:36:10.732Z,34.50
2019-04-25T13:38:37.599Z,34.60
2019-04-25T13:41:04.572Z,34.20
2019-04-25T13:43:31.564Z,34.50
2019-04-25T13:45:58.793Z,34.90
2019-04-25T13:48:27.054Z,35.70
2019-04-25T13:50:54.836Z,34.70
2019-04-25T13:53:23.541Z,34.70
2019-04-25T13:55:50.824Z,34.80
2019-04-25T13:58:18.063Z,34.80
2019-04-25T14:00:45.063Z,33.60
2019-04-25T14:03:12.151Z,34.30
2019-04-25T14:05:40.091Z,34.00
2019-04-25T14:08:07.187Z,34.40
2019-04-25T14:10:34.387Z,34.70
2019-04-25T14:13:01.647Z,34.50
2019-04-25T14:15:29.648Z,34.90
2019-04-25T14:18:10.259Z,34.60
2019-04-25T14:20:40.706Z,35.50
2019-04-25T14:23:08.056Z,35.20
2019-04-25T14:25:35.317Z,34.90
2019-04-25T14:28:05.355Z,34.30
2019-04-25T14:30:32.140Z,33.30
2019-04-25T14:32:59.572Z,33.20
2019-04-25T14:35:26.895Z,33.10
2019-04-25T14:37:54.020Z,33.40
2019-04-25T14:40:21.600Z,33.10
2019-04-25T14:42:49.212Z,32.50
2019-04-25T14:45:17.239Z,32.10
2019-04-25T14:47:43.965Z,32.20
2019-04-25T14:50:10.870Z,32.20
2019-04-25T14:52:38.706Z,31.60
2019-04-25T14:55:24.814Z,31.70
2019-04-25T14:57:53.119Z,31.50
2019-04-25T15:00:30.311Z,32.30
2019-04-25T15:02:57.223Z,33.30
2019-04-25T15:05:24.759Z,32.50
2019-04-25T15:07:51.974Z,32.30
2019-04-25T15:10:19.127Z,32.00
2019-04-25T15:12:45.805Z,32.40
2019-04-25T15:15:12.819Z,32.80
2019-04-25T15:17:46.402Z,33.30
2019-04-25T15:20:08.642Z,33.30
2019-04-25T15:22:35.727Z,33.30
2019-04-25T15:25:02.943Z,33.20
2019-04-25T15:27:29.898Z,32.20
2019-04-25T15:29:56.912Z,32.00
2019-04-25T15:32:27.562Z,32.40
2019-04-25T15:34:56.660Z,32.70
2019-04-25T15:37:30.504Z,33.20
2019-04-25T15:40:12.353Z,32.50
2019-04-25T15:42:45.923Z,33.30
2019-04-25T15:45:41.459Z,33.30
2019-04-25T15:48:08.478Z,32.90
2019-04-25T15:50:35.567Z,32.70
2019-04-25T15:53:02.703Z,32.30
2019-04-25T15:55:29.989Z,32.40
2019-04-25T15:57:57.142Z,32.90
2019-04-25T16:00:30.984Z,31.90
2019-04-25T16:02:58.000Z,31.90
2019-04-25T16:05:25.658Z,31.70
2019-04-25T16:07:53.710Z,31.10
2019-04-25T16:10:20.903Z,31.00
2019-04-25T16:12:48.130Z,31.80
2019-04-25T16:15:15.143Z,32.90
2019-04-25T16:17:41.986Z,32.90
2019-04-25T16:20:08.879Z,32.40
2019-04-25T16:22:36.634Z,32.90
2019-04-25T16:25:04.299Z,33.00
2019-04-25T16:27:31.331Z,33.30
2019-04-25T16:29:58.286Z,32.60
2019-04-25T16:32:25.362Z,33.00
2019-04-25T16:34:52.050Z,33.10
2019-04-25T16:37:19.186Z,32.90
2019-04-25T16:39:46.211Z,33.10
2019-04-25T16:42:13.390Z,33.40
2019-04-25T16:44:40.151Z,35.00
2019-04-25T16:47:08.739Z,33.70
2019-04-25T16:49:36.928Z,34.40
2019-04-25T16:52:06.720Z,36.40
2019-04-25T16:54:33.898Z,35.80
2019-04-25T16:57:00.875Z,36.30
2019-04-25T16:59:29.481Z,36.70
2019-04-25T17:02:01.195Z,36.50
2019-04-25T17:04:29.753Z,36.80
2019-04-25T17:06:57.029Z,37.60
2019-04-25T17:09:23.848Z,38.40
2019-04-25T17:11:50.679Z,39.10
2019-04-25T17:14:31.503Z,39.40
2019-04-25T17:17:24.132Z,40.00
2019-04-25T17:20:02.642Z,40.70
2019-04-25T17:22:30.781Z,40.40
2019-04-25T17:24:58.382Z,40.20
2019-04-25T17:27:25.379Z,40.80
2019-04-25T17:29:52.509Z,41.10
2019-04-25T17:32:48.540Z,42.00
2019-04-25T17:35:22.468Z,42.20
2019-04-25T17:37:52.571Z,42.70
2019-04-25T17:40:27.470Z,43.30
2019-04-25T17:42:54.457Z,43.60
2019-04-25T17:45:25.719Z,44.20
2019-04-25T17:47:54.966Z,44.60
2019-04-25T17:50:21.404Z,45.10
2019-04-25T17:52:48.093Z,45.80
2019-04-25T17:55:15.482Z,46.00
2019-04-25T17:57:42.307Z,45.50
2019-04-25T18:00:15.072Z,45.20
2019-04-25T18:02:42.219Z,45.50
2019-04-25T18:05:09.029Z,46.00
2019-04-25T18:07:36.462Z,46.20
2019-04-25T18:10:04.365Z,46.20
2019-04-25T18:12:31.384Z,46.50
2019-04-25T18:15:00.271Z,46.80
2019-04-25T18:17:27.418Z,47.20
2019-04-25T18:19:58.972Z,47.70
2019-04-25T18:22:46.225Z,48.10
2019-04-25T18:25:23.689Z,47.90
2019-04-25T18:27:55.851Z,48.10
2019-04-25T18:30:23.016Z,48.30
2019-04-25T18:33:10.496Z,47.90
2019-04-25T18:35:38.845Z,48.30
2019-04-25T18:38:18.557Z,48.50
2019-04-25T18:41:07.999Z,48.30
2019-04-25T18:43:39.818Z,48.30
2019-04-25T18:46:12.665Z,49.10
2019-04-25T18:48:40.677Z,49.40
2019-04-25T18:51:07.912Z,49.20
2019-04-25T18:53:53.104Z,49.60
2019-04-25T18:56:35.647Z,49.60
2019-04-25T18:59:27.937Z,49.90
2019-04-25T19:02:13.927Z,50.30
2019-04-25T19:05:03.869Z,50.90
2019-04-25T19:07:31.191Z,50.60
2019-04-25T19:09:57.919Z,50.80
2019-04-25T19:12:24.708Z,51.10
2019-04-25T19:14:52.123Z,50.90
2019-04-25T19:17:19.509Z,50.90
2019-04-25T19:19:47.630Z,51.50
2019-04-25T19:22:14.619Z,52.10
2019-04-25T19:24:44.980Z,52.50
2019-04-25T19:27:09.918Z,52.90
2019-04-25T19:29:36.934Z,53.30
2019-04-25T19:32:03.871Z,53.50
2019-04-25T19:34:30.815Z,53.80
2019-04-25T19:36:57.785Z,54.00
2019-04-25T19:39:26.381Z,54.20
2019-04-25T19:42:15.640Z,54.70
2019-04-25T19:44:51.713Z,54.80
2019-04-25T19:47:20.640Z,54.30
2019-04-25T19:49:47.673Z,54.50
2019-04-25T19:52:14.749Z,54.40
2019-04-25T19:54:41.958Z,54.40
2019-04-25T19:57:08.972Z,54.60
2019-04-25T19:59:35.771Z,54.80
2019-04-25T20:02:07.770Z,55.00
2019-04-25T20:04:44.348Z,55.10
2019-04-25T20:07:30.689Z,55.30
2019-04-25T20:10:20.190Z,55.70
2019-04-25T20:12:50.514Z,54.50
2019-04-25T20:15:17.482Z,54.50
2019-04-25T20:17:44.847Z,53.40
2019-04-25T20:20:12.836Z,53.50
2019-04-25T20:22:40.233Z,53.90
2019-04-25T20:25:08.039Z,54.00
2019-04-25T20:27:35.009Z,54.00
2019-04-25T20:30:02.853Z,53.80
2019-04-25T20:32:29.850Z,53.50
2019-04-25T20:34:57.283Z,53.70
2019-04-25T20:37:23.983Z,53.60
2019-04-25T20:39:51.504Z,53.70
2019-04-25T20:42:18.566Z,53.70
2019-04-25T20:44:45.579Z,53.50
2019-04-25T20:47:13.520Z,54.20
2019-04-25T20:49:40.328Z,54.30
2019-04-25T20:52:07.222Z,54.60
2019-04-25T20:54:34.507Z,54.70
2019-04-25T20:57:01.779Z,55.10
2019-04-25T20:59:28.927Z,55.10
2019-04-25T21:01:56.007Z,55.70
2019-04-25T21:04:38.460Z,55.70
2019-04-25T21:07:05.639Z,55.80
2019-04-25T21:09:32.355Z,55.60
2019-04-25T21:11:59.068Z,55.80
2019-04-25T21:14:44.136Z,56.30
2019-04-25T21:17:15.627Z,56.80
2019-04-25T21:19:43.912Z,57.20
2019-04-25T21:22:10.933Z,58.00
2019-04-25T21:24:37.944Z,57.60
2019-04-25T21:27:05.159Z,57.40
2019-04-25T21:29:31.974Z,56.70
2019-04-25T21:31:58.877Z,56.60
2019-04-25T21:34:27.281Z,56.40
2019-04-25T21:36:54.457Z,56.60
2019-04-25T21:39:34.879Z,56.70
2019-04-25T21:42:17.918Z,56.70
2019-04-25T21:44:45.092Z,57.80
2019-04-25T21:47:12.455Z,57.80
2019-04-25T21:49:39.542Z,57.60
2019-04-25T21:52:06.356Z,57.50
2019-04-25T21:54:33.595Z,57.30
2019-04-25T21:57:01.664Z,56.70
2019-04-25T21:59:28.819Z,57.00
2019-04-25T22:01:58.026Z,57.30
2019-04-25T22:04:32.641Z,58.00
2019-04-25T22:06:54.226Z,58.00
2019-04-25T22:09:22.693Z,58.00
2019-04-25T22:11:50.099Z,57.90
2019-04-25T22:14:17.314Z,57.70
2019-04-25T22:16:44.603Z,58.30
2019-04-25T22:19:11.710Z,59.10
2019-04-25T22:21:39.111Z,60.00
2019-04-25T22:24:13.784Z,61.00
2019-04-25T22:26:36.026Z,61.90
2019-04-25T22:29:03.638Z,62.10
2019-04-25T22:31:36.112Z,62.60
2019-04-25T22:34:10.241Z,63.00
2019-04-25T22:36:37.438Z,63.80
2019-04-25T22:39:11.119Z,64.30
2019-04-25T22:41:41.178Z,64.70
2019-04-25T22:44:10.091Z,65.50
2019-04-25T22:46:37.447Z,66.10
2019-04-25T22:49:05.599Z,66.20
2019-04-25T22:51:32.353Z,67.40
2019-04-25T22:53:59.646Z,68.00
2019-04-25T22:56:26.492Z,68.30
2019-04-25T22:58:53.187Z,67.60
2019-04-25T23:01:40.403Z,67.60
2019-04-25T23:04:13.260Z,68.30
2019-04-25T23:06:40.903Z,68.20
2019-04-25T23:09:08.199Z,69.10
2019-04-25T23:11:35.348Z,70.30
2019-04-25T23:14:02.548Z,71.90
2019-04-25T23:16:30.359Z,72.70
2019-04-25T23:18:57.031Z,73.60
2019-04-25T23:21:23.744Z,74.80
2019-04-25T23:23:50.458Z,76.80
2019-04-25T23:26:43.187Z,76.90
2019-04-25T23:29:10.312Z,78.50
2019-04-25T23:31:37.875Z,80.40
2019-04-25T23:34:06.119Z,81.20
2019-04-25T23:36:33.737Z,83.70
2019-04-25T23:39:00.445Z,86.00
2019-04-25T23:41:27.514Z,88.60
2019-04-25T23:43:54.207Z,90.00
2019-04-25T23:46:21.495Z,90.20
2019-04-25T23:48:48.747Z,90.80
2019-04-25T23:51:15.528Z,91.50
2019-04-25T23:53:43.047Z,92.00
2019-04-25T23:56:09.836Z,92.60
2019-04-25T23:58:38.071Z,92.60
